Time;durP1;ratioP1;P1;durP2;ratioP2;P2;SDS_P1;SDS_P2;PMS_P1;PMS_P2;Temp;Humidity;BMP_temperature;BMP_pressure;BME280_temperature;BME280_humidity;BME280_pressure;Samples;Min_cycle;Max_cycle;Signal;HPM_P1;HPM_P2
2021/04/04 00:01:55;;;;;;;6.38;4.72;;;;;;;3.75;77.48;93651.81;5057199;28;20144;-81
2021/04/04 00:04:20;;;;;;;8.85;5.75;;;;;;;3.71;76.87;93661.34;5050338;28;20041;-81
2021/04/04 00:06:45;;;;;;;7.57;4.70;;;;;;;3.67;77.76;93647.13;5052068;28;20032;-81
2021/04/04 00:09:11;;;;;;;8.07;4.53;;;;;;;3.70;78.33;93658.97;5068773;28;20467;-81
2021/04/04 00:11:39;;;;;;;8.80;5.07;;;;;;;3.69;78.42;93650.28;5069986;28;20032;-81
2021/04/04 00:14:05;;;;;;;8.10;5.15;;;;;;;3.60;78.37;93658.00;5056251;28;20037;-81
2021/04/04 00:16:30;;;;;;;9.05;5.47;;;;;;;3.60;78.48;93662.44;5051141;28;20066;-82
2021/04/04 00:18:55;;;;;;;8.80;5.65;;;;;;;3.55;79.08;93678.31;5068478;28;20024;-82
2021/04/04 00:21:22;;;;;;;8.25;5.13;;;;;;;3.36;78.51;93665.78;5068588;28;20028;-82
2021/04/04 00:23:47;;;;;;;9.57;5.28;;;;;;;3.30;79.52;93661.59;5068508;28;20028;-82
2021/04/04 00:26:13;;;;;;;7.70;4.57;;;;;;;3.27;79.24;93672.66;5063576;28;20166;-82
2021/04/04 00:28:38;;;;;;;7.05;4.65;;;;;;;3.18;79.34;93669.03;5051476;28;20020;-82
2021/04/04 00:31:03;;;;;;;7.63;4.75;;;;;;;3.13;79.56;93676.94;5068492;28;20025;-81
2021/04/04 00:33:29;;;;;;;7.72;4.30;;;;;;;3.14;79.74;93671.41;5054674;28;20412;-82
2021/04/04 00:35:54;;;;;;;7.07;4.80;;;;;;;3.10;79.60;93672.22;5069681;28;20035;-82
2021/04/04 00:38:20;;;;;;;7.60;4.50;;;;;;;3.12;79.69;93675.38;5070100;28;20020;-82
2021/04/04 00:40:45;;;;;;;6.35;4.35;;;;;;;3.09;80.01;93671.41;5054361;28;20565;-81
2021/04/04 00:43:11;;;;;;;5.97;3.60;;;;;;;3.06;79.85;93673.84;5056208;28;20446;-81
2021/04/04 00:45:39;;;;;;;6.68;4.10;;;;;;;3.07;80.00;93667.50;5064400;28;20024;-81
2021/04/04 00:48:06;;;;;;;6.55;3.63;;;;;;;3.09;79.88;93671.41;5069635;28;20107;-82
2021/04/04 00:50:35;;;;;;;5.20;2.85;;;;;;;3.14;78.98;93679.31;5059875;28;20055;-82
2021/04/04 00:53:02;;;;;;;8.80;3.60;;;;;;;3.08;79.32;93676.97;5068443;28;20035;-82
2021/04/04 00:55:27;;;;;;;5.25;2.80;;;;;;;3.09;79.21;93689.84;5057453;28;20028;-82
2021/04/04 00:57:54;;;;;;;5.03;2.50;;;;;;;3.07;78.78;93686.69;5062777;28;20035;-81
2021/04/04 01:00:25;;;;;;;5.05;2.65;;;;;;;2.97;78.98;93690.19;5068449;28;20063;-81
2021/04/04 01:02:53;;;;;;;4.67;2.63;;;;;;;2.97;79.55;93697.28;5067955;28;20024;-82
2021/04/04 01:05:24;;;;;;;3.75;2.30;;;;;;;2.87;78.95;93682.31;5055830;28;20020;-82
2021/04/04 01:07:50;;;;;;;4.15;2.78;;;;;;;2.86;79.33;93699.16;5050941;28;20028;-82
2021/04/04 01:10:17;;;;;;;5.90;3.22;;;;;;;2.87;79.85;93694.69;5056382;28;20460;-81
2021/04/04 01:12:48;;;;;;;4.35;2.78;;;;;;;2.91;79.81;93695.72;5067849;28;20100;-82
2021/04/04 01:15:19;;;;;;;4.70;2.78;;;;;;;2.87;79.38;93706.03;5059537;28;20024;-82
2021/04/04 01:17:48;;;;;;;4.47;2.70;;;;;;;2.65;79.53;93695.03;5067937;28;20063;-82
2021/04/04 01:20:18;;;;;;;4.65;2.95;;;;;;;2.55;79.74;93695.84;5059571;28;20028;-81
2021/04/04 01:22:55;;;;;;;3.67;2.55;;;;;;;2.56;80.10;93690.28;5067891;28;20035;-81
2021/04/04 01:25:38;;;;;;;5.05;2.33;;;;;;;2.62;79.88;93685.81;5068234;28;20059;-81
2021/04/04 01:28:11;;;;;;;5.03;3.30;;;;;;;2.62;79.92;93688.44;5056928;28;20105;-81
2021/04/04 01:30:40;;;;;;;5.53;3.00;;;;;;;2.55;79.58;93688.72;5062572;28;20400;-81
2021/04/04 01:33:10;;;;;;;5.13;3.40;;;;;;;2.56;80.57;93695.53;5051382;28;20417;-81
2021/04/04 01:35:37;;;;;;;5.03;2.97;;;;;;;2.50;79.85;93691.34;5054236;28;20021;-81
2021/04/04 01:38:12;;;;;;;5.05;3.28;;;;;;;2.49;79.94;93700.31;5070530;28;20048;-81
2021/04/04 01:40:41;;;;;;;5.13;3.38;;;;;;;2.54;80.00;93687.13;5065910;28;20102;-81
2021/04/04 01:43:08;;;;;;;6.03;3.53;;;;;;;2.48;80.13;93688.19;5072790;28;20055;-82
2021/04/04 01:45:34;;;;;;;5.50;3.75;;;;;;;2.51;80.43;93686.91;5055803;28;20025;-81
2021/04/04 01:48:02;;;;;;;8.98;4.00;;;;;;;2.53;80.73;93684.78;5059826;28;20177;-81
2021/04/04 01:50:28;;;;;;;5.93;3.17;;;;;;;2.52;79.48;93686.59;5067670;28;20396;-81
2021/04/04 01:52:54;;;;;;;5.57;3.22;;;;;;;2.53;79.41;93680.31;5053178;28;20075;-81
2021/04/04 01:55:22;;;;;;;5.20;3.13;;;;;;;2.35;80.17;93683.50;5063016;28;20874;-81
2021/04/04 01:57:50;;;;;;;5.88;3.30;;;;;;;2.33;80.13;93685.59;5068510;28;20036;-81
2021/04/04 02:00:19;;;;;;;5.75;3.40;;;;;;;2.28;79.73;93683.78;5071055;28;20028;-81
2021/04/04 02:02:46;;;;;;;7.10;3.85;;;;;;;2.33;79.84;93682.97;5057422;28;20068;-81
2021/04/04 02:05:13;;;;;;;5.47;3.28;;;;;;;2.35;80.25;93678.25;5071036;28;20020;-82
2021/04/04 02:07:42;;;;;;;6.40;4.18;;;;;;;2.34;79.91;93676.66;5070912;28;20056;-82
2021/04/04 02:10:16;;;;;;;7.38;4.80;;;;;;;2.29;79.85;93684.56;5070748;28;20099;-82
2021/04/04 02:12:43;;;;;;;7.82;4.50;;;;;;;2.29;79.77;93679.31;5072579;28;20031;-82
2021/04/04 02:15:11;;;;;;;9.38;5.28;;;;;;;2.15;80.56;93676.41;5072071;28;20032;-81
2021/04/04 02:17:39;;;;;;;8.52;5.30;;;;;;;2.10;80.67;93663.28;5068154;28;20033;-81
2021/04/04 02:20:12;;;;;;;8.38;4.88;;;;;;;2.13;80.65;93666.16;5054112;28;20037;-82
2021/04/04 02:22:39;;;;;;;8.85;5.70;;;;;;;2.13;80.52;93671.41;5070933;28;20032;-81
2021/04/04 02:25:06;;;;;;;10.20;5.45;;;;;;;2.17;81.06;93675.09;5062463;28;20028;-81
2021/04/04 02:27:32;;;;;;;10.70;6.18;;;;;;;2.20;80.98;93664.06;5072124;28;20028;-82
2021/04/04 02:29:57;;;;;;;11.77;6.43;;;;;;;2.23;80.98;93659.31;5056872;28;20032;-82
2021/04/04 02:32:26;;;;;;;10.02;6.22;;;;;;;2.23;80.41;93675.09;5053826;28;20029;-82
2021/04/04 02:34:56;;;;;;;9.65;6.28;;;;;;;2.21;79.94;93665.63;5070518;28;20056;-82
2021/04/04 02:37:22;;;;;;;9.13;6.25;;;;;;;2.10;80.10;93666.72;5062081;28;20028;-82
2021/04/04 02:39:52;;;;;;;12.38;7.72;;;;;;;2.24;80.65;93671.41;5062553;28;20577;-82
2021/04/04 02:42:23;;;;;;;9.15;5.82;;;;;;;2.16;79.96;93663.00;5051098;28;20028;-82
2021/04/04 02:44:52;;;;;;;11.23;7.50;;;;;;;2.08;81.16;93663.56;5065569;28;20033;-82
2021/04/04 02:47:22;;;;;;;10.85;7.15;;;;;;;2.03;80.59;93668.78;5053448;28;20036;-82
2021/04/04 02:49:51;;;;;;;11.55;7.80;;;;;;;2.03;80.70;93660.13;5071829;28;20108;-82
2021/04/04 02:52:20;;;;;;;12.85;7.32;;;;;;;2.11;81.09;93656.97;5056333;28;20020;-82
2021/04/04 02:54:51;;;;;;;14.68;9.05;;;;;;;2.09;80.72;93659.84;5066213;28;20032;-81
2021/04/04 02:57:18;;;;;;;17.08;8.00;;;;;;;2.10;80.31;93656.19;5052896;28;20039;-82
2021/04/04 02:59:45;;;;;;;14.18;8.65;;;;;;;2.13;80.85;93647.75;5055201;28;20459;-82
2021/04/04 03:02:14;;;;;;;13.85;9.10;;;;;;;2.09;80.47;93654.59;5051991;28;20021;-82
2021/04/04 03:04:40;;;;;;;14.20;9.10;;;;;;;2.13;80.45;93655.66;5071222;28;20514;-82
2021/04/04 03:07:08;;;;;;;13.98;8.88;;;;;;;2.14;80.58;93651.97;5069999;28;20020;-82
2021/04/04 03:09:37;;;;;;;15.25;8.63;;;;;;;2.21;80.40;93657.72;5053248;28;20078;-82
2021/04/04 03:12:04;;;;;;;15.88;9.25;;;;;;;2.24;80.34;93651.19;5069915;28;20445;-82
2021/04/04 03:14:30;;;;;;;20.75;11.00;;;;;;;2.20;80.00;93650.13;5066928;28;20043;-82
2021/04/04 03:16:57;;;;;;;15.70;10.30;;;;;;;2.25;80.15;93659.84;5054098;28;20033;-82
2021/04/04 03:19:23;;;;;;;16.10;10.07;;;;;;;2.19;80.18;93648.53;5052107;28;20037;-81
2021/04/04 03:21:50;;;;;;;16.23;10.45;;;;;;;2.21;79.78;93655.09;5055110;28;20021;-81
2021/04/04 03:24:17;;;;;;;17.08;10.80;;;;;;;2.20;80.29;93655.41;5051341;28;20024;-82
2021/04/04 03:26:45;;;;;;;19.73;11.27;;;;;;;2.20;79.91;93650.13;5070615;28;20455;-82
2021/04/04 03:29:11;;;;;;;17.25;11.05;;;;;;;2.24;80.37;93653.00;5055730;28;20108;-81
2021/04/04 03:31:38;;;;;;;19.80;11.90;;;;;;;2.23;79.72;93638.28;5070645;28;20472;-81
2021/04/04 03:34:05;;;;;;;19.83;12.23;;;;;;;2.24;79.94;93648.56;5069487;28;20062;-81
2021/04/04 03:36:31;;;;;;;19.33;11.60;;;;;;;2.33;80.04;93646.94;5065145;28;20028;-81
2021/04/04 03:38:58;;;;;;;18.83;10.77;;;;;;;2.35;80.19;93647.47;5071135;28;20025;-81
2021/04/04 03:41:25;;;;;;;18.15;11.45;;;;;;;2.30;79.26;93636.16;5072625;28;20047;-81
2021/04/04 03:43:52;;;;;;;19.00;12.13;;;;;;;2.31;79.37;93643.00;5056084;28;20032;-81
2021/04/04 03:46:23;;;;;;;21.83;12.25;;;;;;;2.31;78.79;93637.75;5058846;28;20054;-81
2021/04/04 03:48:49;;;;;;;19.00;12.15;;;;;;;2.34;79.13;93642.47;5090672;28;20035;-81
2021/04/04 03:51:15;;;;;;;20.40;11.88;;;;;;;2.31;79.57;93654.31;5091049;28;20394;-82
2021/04/04 03:53:43;;;;;;;22.48;13.07;;;;;;;2.34;78.94;93643.28;5055634;28;20040;-82
2021/04/04 03:56:11;;;;;;;21.67;12.68;;;;;;;2.33;78.78;93646.94;5090604;28;20031;-82
2021/04/04 03:58:39;;;;;;;20.88;12.98;;;;;;;2.38;79.58;93643.50;5090257;28;20024;-82
2021/04/04 04:01:07;;;;;;;22.70;13.30;;;;;;;2.43;79.48;93643.50;5064795;28;20039;-82
2021/04/04 04:03:34;;;;;;;19.05;12.32;;;;;;;2.40;78.56;93650.09;5089640;28;20028;-82
2021/04/04 04:06:00;;;;;;;22.25;13.40;;;;;;;2.47;78.67;93651.66;5072326;28;20030;-82
2021/04/04 04:08:27;;;;;;;22.30;13.07;;;;;;;2.49;78.68;93644.28;5058239;28;20024;-82
2021/04/04 04:10:53;;;;;;;20.15;11.98;;;;;;;2.45;78.52;93646.66;5072119;28;20085;-82
2021/04/04 04:13:20;;;;;;;22.63;13.18;;;;;;;2.38;78.57;93651.41;5072311;28;20459;-82
2021/04/04 04:15:50;;;;;;;27.63;13.45;;;;;;;2.39;78.56;93642.47;5060968;28;20028;-82
2021/04/04 04:18:16;;;;;;;22.75;13.80;;;;;;;2.33;78.63;93644.31;5064225;28;20361;-81
2021/04/04 04:20:41;;;;;;;22.30;12.65;;;;;;;2.35;78.66;93647.47;5068870;28;20031;-82
2021/04/04 04:23:08;;;;;;;25.52;15.05;;;;;;;2.37;78.98;93647.19;5105619;28;20024;-82
2021/04/04 04:25:36;;;;;;;25.30;13.63;;;;;;;2.45;79.42;93637.97;5071898;28;20466;-82
2021/04/04 04:28:04;;;;;;;24.77;14.10;;;;;;;2.42;78.91;93641.91;5055168;28;20027;-82
2021/04/04 04:30:30;;;;;;;22.80;14.70;;;;;;;2.44;77.93;93645.06;5066417;28;20035;-82
2021/04/04 04:33:00;;;;;;;25.73;14.30;;;;;;;2.40;78.15;93647.47;5071858;28;20422;-81
2021/04/04 04:35:27;;;;;;;23.70;15.60;;;;;;;2.36;77.75;93640.34;5066471;28;20173;-82
2021/04/04 04:37:54;;;;;;;29.27;15.48;;;;;;;2.29;78.66;93639.84;5089997;28;20517;-82
2021/04/04 04:40:21;;;;;;;26.08;15.10;;;;;;;2.30;78.91;93639.59;5071554;28;20040;-82
2021/04/04 04:42:49;;;;;;;23.10;15.10;;;;;;;2.27;78.77;93644.59;5071660;28;20667;-80
2021/04/04 04:45:23;;;;;;;24.35;14.02;;;;;;;2.30;78.39;93638.78;5063750;28;20024;-79
2021/04/04 04:47:53;;;;;;;25.25;13.88;;;;;;;2.28;78.76;93646.16;5063390;28;20020;-79
2021/04/04 04:50:19;;;;;;;24.83;15.77;;;;;;;2.33;78.67;93656.69;5063602;28;20099;-79
2021/04/04 04:52:45;;;;;;;25.10;15.55;;;;;;;2.40;78.73;93644.03;5063683;28;20025;-79
2021/04/04 04:55:12;;;;;;;23.42;14.25;;;;;;;2.39;77.58;93643.25;5066424;28;20039;-80
2021/04/04 04:57:38;;;;;;;26.95;15.25;;;;;;;2.46;78.31;93652.69;5066283;28;20044;-79
2021/04/04 05:00:09;;;;;;;26.52;15.30;;;;;;;2.47;79.02;93652.44;5071539;28;20585;-80
2021/04/04 05:02:35;;;;;;;26.38;15.65;;;;;;;2.45;77.75;93651.91;5066059;28;20123;-79
2021/04/04 05:05:05;;;;;;;26.95;15.88;;;;;;;2.41;78.57;93666.66;5065989;28;20087;-80
2021/04/04 05:07:33;;;;;;;25.73;15.38;;;;;;;2.41;77.91;93664.81;5066249;28;20508;-79
2021/04/04 05:10:00;;;;;;;25.48;15.50;;;;;;;2.49;77.57;93658.22;5057723;28;20027;-79
2021/04/04 05:12:26;;;;;;;26.10;15.32;;;;;;;2.49;78.11;93678.50;5060475;28;20035;-80
2021/04/04 05:14:52;;;;;;;31.30;15.77;;;;;;;2.57;78.79;93670.03;5097525;28;20402;-80
2021/04/04 05:17:18;;;;;;;29.08;15.75;;;;;;;2.61;78.81;93678.97;5075451;28;20559;-79
2021/04/04 05:19:43;;;;;;;26.83;15.75;;;;;;;2.57;78.58;93686.63;5093405;28;20065;-79
2021/04/04 05:22:09;;;;;;;28.20;16.95;;;;;;;2.59;78.01;93686.34;5074994;28;20055;-80
2021/04/04 05:24:34;;;;;;;29.67;16.48;;;;;;;2.54;78.08;93676.59;5075026;28;20036;-80
2021/04/04 05:27:00;;;;;;;33.35;16.23;;;;;;;2.52;77.76;93689.25;5074883;28;20024;-80
2021/04/04 05:29:25;;;;;;;29.98;17.20;;;;;;;2.51;78.66;93697.44;5067987;28;20052;-80
2021/04/04 05:31:53;;;;;;;25.33;15.38;;;;;;;2.46;78.27;93698.19;5057238;28;20032;-80
2021/04/04 05:34:27;;;;;;;26.92;14.63;;;;;;;2.45;78.47;93701.13;5074760;28;20072;-79
2021/04/04 05:37:03;;;;;;;29.02;15.20;;;;;;;2.41;77.94;93685.06;5058683;28;20056;-79
2021/04/04 05:39:34;;;;;;;24.27;14.02;;;;;;;2.32;77.23;93686.66;5074963;28;20032;-79
2021/04/04 05:42:01;;;;;;;29.38;15.02;;;;;;;2.39;77.99;93676.66;5074842;28;20103;-79
2021/04/04 05:44:34;;;;;;;23.58;15.00;;;;;;;2.42;78.13;93684.00;5093140;28;20031;-79
2021/04/04 05:47:04;;;;;;;25.63;15.20;;;;;;;2.43;79.06;93690.06;5060859;28;20051;-79
2021/04/04 05:49:50;;;;;;;26.27;15.57;;;;;;;2.43;79.10;93685.59;5070665;28;20074;-79
2021/04/04 05:52:32;;;;;;;29.00;16.08;;;;;;;2.44;78.40;93692.41;5065118;28;20056;-79
2021/04/04 05:55:17;;;;;;;26.95;15.88;;;;;;;2.50;78.09;93695.84;5069339;28;20013;-79
2021/04/04 05:57:46;;;;;;;29.23;15.65;;;;;;;2.45;78.31;93698.50;5074611;28;20032;-79
2021/04/04 06:00:14;;;;;;;30.17;15.10;;;;;;;2.38;77.98;93698.75;5074258;28;20042;-79
2021/04/04 06:03:17;;;;;;;37.63;16.65;;;;;;;2.39;78.04;93690.59;5074701;28;20093;-79
2021/04/04 06:05:43;;;;;;;32.63;15.75;;;;;;;2.40;78.95;93684.28;5074347;28;20024;-79
2021/04/04 06:08:33;;;;;;;28.30;15.20;;;;;;;2.46;77.74;93684.25;5065979;28;20035;-79
2021/04/04 06:11:17;;;;;;;25.35;14.60;;;;;;;2.46;77.63;93685.03;5092787;28;20028;-79
2021/04/04 06:14:07;;;;;;;27.17;14.38;;;;;;;2.55;78.10;93691.34;5060540;28;20174;-79
2021/04/04 06:17:02;;;;;;;22.70;14.18;;;;;;;2.50;77.42;93695.84;5058204;28;20063;-80
2021/04/04 06:19:32;;;;;;;26.85;14.90;;;;;;;2.52;77.51;93694.50;5065658;28;20040;-80
2021/04/04 06:22:13;;;;;;;27.00;14.02;;;;;;;2.62;77.62;93696.34;5074087;28;20093;-80
2021/04/04 06:25:02;;;;;;;25.80;14.32;;;;;;;2.65;76.77;93697.66;5074299;28;20505;-80
2021/04/04 06:28:06;;;;;;;22.50;13.45;;;;;;;2.51;75.82;93700.84;5092114;28;20024;-79
2021/04/04 06:30:49;;;;;;;25.08;13.32;;;;;;;2.51;76.45;93707.94;5003365;28;20028;-79
2021/04/04 06:33:31;;;;;;;23.30;14.00;;;;;;;2.58;77.33;93708.44;5052090;28;20028;-79
2021/04/04 06:36:00;;;;;;;;;;;;;;;2.47;76.00;93701.63;5074395;28;20107;-79
2021/04/04 06:38:53;;;;;;;25.27;13.93;;;;;;;2.50;77.38;93711.63;5107827;28;20045;-79
2021/04/04 06:41:34;;;;;;;22.38;13.60;;;;;;;2.39;76.51;93701.13;5065215;28;20070;-79
2021/04/04 06:44:09;;;;;;;22.38;13.75;;;;;;;2.47;77.30;93702.41;5092117;28;20024;-79
2021/04/04 06:46:53;;;;;;;26.17;13.88;;;;;;;2.46;75.99;93703.47;5073743;28;20471;-79
2021/04/04 06:49:26;;;;;;;23.10;13.57;;;;;;;2.44;76.59;93707.41;5068190;28;20065;-80
2021/04/04 06:52:17;;;;;;;24.70;13.95;;;;;;;2.43;76.64;93704.00;5059949;28;20067;-79
2021/04/04 06:55:06;;;;;;;24.20;13.70;;;;;;;2.46;77.26;93711.34;5049007;28;20024;-86
2021/04/04 06:57:50;;;;;;;25.38;13.68;;;;;;;2.38;76.26;93728.47;5055257;28;20111;-86
2021/04/04 07:00:23;;;;;;;23.33;14.82;;;;;;;2.41;77.61;93720.03;5073241;28;20054;-85
2021/04/04 07:02:57;;;;;;;28.23;14.50;;;;;;;2.47;77.18;93712.94;5091651;28;20044;-86
2021/04/04 07:05:27;;;;;;;27.58;14.30;;;;;;;2.51;76.80;93713.22;5073358;28;20067;-86
2021/04/04 07:08:08;;;;;;;25.42;13.88;;;;;;;2.40;77.46;93710.59;5059801;28;20077;-86
2021/04/04 07:10:39;;;;;;;26.42;13.75;;;;;;;2.52;77.51;93715.56;5090412;28;20020;-86
2021/04/04 07:13:54;;;;;;;22.48;13.70;;;;;;;2.61;77.70;93723.72;5073333;28;20089;-86
2021/04/04 07:16:41;;;;;;;22.20;12.88;;;;;;;2.60;76.75;93717.63;5049869;28;20041;-85
2021/04/04 07:19:30;;;;;;;21.15;13.57;;;;;;;2.64;76.88;93707.38;5067804;28;20107;-86
2021/04/04 07:22:08;;;;;;;21.33;12.77;;;;;;;2.74;78.00;93711.84;5073251;28;20070;-86
2021/04/04 07:24:36;;;;;;;22.00;14.50;;;;;;;2.73;76.81;93710.28;5064611;28;20043;-85
2021/04/04 07:27:01;;;;;;;21.70;12.95;;;;;;;2.73;77.44;93711.06;5067358;28;20017;-85
2021/04/04 07:29:45;;;;;;;24.33;14.10;;;;;;;2.86;76.37;93714.19;5072716;28;20030;-85
2021/04/04 07:32:37;;;;;;;24.10;13.88;;;;;;;2.90;77.02;93710.72;5064615;28;20035;-85
2021/04/04 07:35:20;;;;;;;29.63;13.37;;;;;;;3.00;77.17;93712.56;5061140;28;20130;-85
2021/04/04 07:38:08;;;;;;;24.92;14.05;;;;;;;3.08;76.77;93712.00;5063972;28;20490;-85
2021/04/04 07:40:50;;;;;;;20.95;13.32;;;;;;;3.12;75.34;93706.97;5072309;28;20481;-85
2021/04/04 07:43:39;;;;;;;24.83;14.05;;;;;;;3.16;77.72;93708.81;5072593;28;20475;-86
2021/04/04 07:46:13;;;;;;;23.27;13.57;;;;;;;3.17;75.71;93704.31;5072751;28;20031;-86
2021/04/04 07:49:14;;;;;;;24.30;13.48;;;;;;;3.26;76.83;93696.63;5064059;28;20032;-85
2021/04/04 07:51:46;;;;;;;23.92;14.20;;;;;;;3.19;75.84;93702.97;5069476;28;20480;-85
2021/04/04 07:54:22;;;;;;;19.58;13.23;;;;;;;3.24;76.24;93712.72;5072479;28;20028;-85
2021/04/04 07:56:53;;;;;;;22.48;13.90;;;;;;;3.14;76.16;93703.00;5055911;28;20024;-86
2021/04/04 07:59:24;;;;;;;21.67;12.65;;;;;;;3.22;76.65;93709.56;5090701;28;20028;-86
2021/04/04 08:02:13;;;;;;;24.25;13.35;;;;;;;3.21;75.85;93706.13;5055482;28;20024;-85
2021/04/04 08:04:42;;;;;;;24.10;13.27;;;;;;;3.18;75.74;93717.22;5061432;28;20036;-86
2021/04/04 08:07:14;;;;;;;21.17;13.18;;;;;;;3.20;75.85;93709.06;5072532;28;20038;-85
2021/04/04 08:09:45;;;;;;;22.75;13.60;;;;;;;3.11;75.15;93716.72;5072330;28;20049;-85
2021/04/04 08:12:42;;;;;;;19.95;12.63;;;;;;;3.07;76.64;93707.00;5066937;28;20560;-86
2021/04/04 08:15:15;;;;;;;24.73;13.32;;;;;;;3.10;76.77;93709.09;5087756;28;20038;-86
2021/04/04 08:17:41;;;;;;;23.48;14.18;;;;;;;3.14;76.41;93716.19;5055431;28;20025;-86
2021/04/04 08:20:19;;;;;;;22.65;13.32;;;;;;;3.16;75.69;93713.28;5063913;28;20031;-86
2021/04/04 08:22:57;;;;;;;22.80;12.55;;;;;;;3.07;75.88;93714.88;5071918;28;20050;-86
2021/04/04 08:25:31;;;;;;;20.25;12.57;;;;;;;3.08;76.34;93711.22;5090240;28;20108;-85
2021/04/04 08:28:04;;;;;;;26.13;14.20;;;;;;;3.04;76.90;93705.69;5063719;28;20070;-86
2021/04/04 08:30:39;;;;;;;23.42;14.57;;;;;;;3.14;77.64;93718.03;5066625;28;20251;-86
2021/04/04 08:33:20;;;;;;;21.05;13.63;;;;;;;3.11;77.02;93710.66;5047306;28;20090;-86
2021/04/04 08:35:49;;;;;;;20.75;13.23;;;;;;;3.16;77.02;93708.03;5067426;28;20028;-86
2021/04/04 08:38:33;;;;;;;25.27;14.25;;;;;;;3.13;76.33;93719.06;5058420;28;20036;-86
2021/04/04 08:41:01;;;;;;;22.02;12.73;;;;;;;3.12;77.22;93717.53;5071205;28;20185;-86
2021/04/04 08:43:27;;;;;;;22.30;13.98;;;;;;;3.21;77.38;93708.75;5063500;28;20224;-86
2021/04/04 08:46:05;;;;;;;23.88;13.77;;;;;;;3.25;77.79;93702.97;5069971;28;20030;-86
2021/04/04 08:48:32;;;;;;;22.60;13.93;;;;;;;3.06;76.60;93714.09;5064804;28;20035;-85
2021/04/04 08:50:58;;;;;;;23.08;14.40;;;;;;;3.07;76.77;93712.25;5075886;28;20453;-85
2021/04/04 08:53:25;;;;;;;24.75;14.98;;;;;;;3.09;77.10;93712.78;5059297;28;20103;-85
2021/04/04 08:55:51;;;;;;;24.25;13.45;;;;;;;3.19;78.44;93707.47;5059214;28;20376;-86
2021/04/04 08:58:21;;;;;;;26.88;15.23;;;;;;;3.32;78.23;93706.09;5075716;28;20046;-86
2021/04/04 09:00:50;;;;;;;23.15;13.90;;;;;;;3.39;77.10;93701.31;5093636;28;20482;-85
2021/04/04 09:03:23;;;;;;;23.40;13.85;;;;;;;3.40;76.67;93695.78;5062706;28;20190;-85
2021/04/04 09:06:00;;;;;;;22.48;13.45;;;;;;;3.46;75.80;93688.66;5056589;28;20138;-85
2021/04/04 09:08:26;;;;;;;21.83;13.73;;;;;;;3.48;76.72;93688.34;5093869;28;20099;-86
2021/04/04 09:10:52;;;;;;;24.88;13.15;;;;;;;3.42;75.03;93692.88;5075433;28;20020;-85
2021/04/04 09:13:19;;;;;;;19.85;13.23;;;;;;;3.52;76.02;93684.91;5064739;28;20108;-86
2021/04/04 09:15:52;;;;;;;23.55;13.65;;;;;;;3.64;77.24;93681.94;5061545;28;20077;-84
2021/04/04 09:18:18;;;;;;;18.98;12.43;;;;;;;3.74;74.61;93678.44;5062443;28;20021;-85
2021/04/04 09:20:46;;;;;;;21.50;12.60;;;;;;;3.80;75.13;93678.13;5058191;28;20459;-85
2021/04/04 09:23:14;;;;;;;22.33;12.07;;;;;;;3.75;72.94;93682.66;5050088;28;20081;-85
2021/04/04 09:26:05;;;;;;;18.50;11.80;;;;;;;3.71;73.69;93677.16;5057319;28;20124;-86
2021/04/04 09:28:34;;;;;;;20.30;11.40;;;;;;;3.69;73.01;93676.63;5075325;28;20022;-85
2021/04/04 09:31:01;;;;;;;19.67;11.80;;;;;;;3.72;74.92;93676.06;5075093;28;20483;-85
2021/04/04 09:33:30;;;;;;;20.33;10.60;;;;;;;3.76;72.80;93673.69;5075237;28;20047;-86
2021/04/04 09:35:57;;;;;;;20.00;13.05;;;;;;;3.75;73.94;93672.13;5093078;28;20024;-84
2021/04/04 09:38:30;;;;;;;26.80;13.73;;;;;;;3.77;73.98;93676.06;5074989;28;20073;-84
2021/04/04 09:40:56;;;;;;;19.40;12.07;;;;;;;3.89;73.38;93677.53;5087910;28;20156;-85
2021/04/04 09:43:23;;;;;;;27.48;12.07;;;;;;;3.99;73.31;93675.63;5093344;28;20028;-85
2021/04/04 09:45:48;;;;;;;23.58;13.95;;;;;;;4.01;73.23;93675.38;5069205;28;20033;-85
2021/04/04 09:48:22;;;;;;;19.25;11.50;;;;;;;3.99;71.52;93678.25;5071846;28;20028;-85
2021/04/04 09:50:49;;;;;;;19.75;11.73;;;;;;;4.06;72.99;93682.44;5074942;28;20380;-85
2021/04/04 09:53:37;;;;;;;20.90;12.10;;;;;;;4.12;74.17;93687.38;5066494;28;20437;-85
2021/04/04 09:56:18;;;;;;;18.20;11.38;;;;;;;4.09;73.13;93687.94;5066312;28;20443;-85
2021/04/04 09:58:45;;;;;;;19.48;11.60;;;;;;;4.04;72.15;93685.34;5091993;28;20028;-85
2021/04/04 10:01:15;;;;;;;17.60;11.90;;;;;;;3.89;73.30;93688.09;5071655;28;20043;-85
2021/04/04 10:03:41;;;;;;;23.60;13.68;;;;;;;3.89;75.11;93682.81;5066338;28;20032;-85
2021/04/04 10:06:12;;;;;;;18.52;12.57;;;;;;;3.85;73.41;93674.69;5065958;28;20031;-85
2021/04/04 10:08:37;;;;;;;23.00;12.65;;;;;;;3.73;73.63;93675.03;5058154;28;20131;-86
2021/04/04 10:11:13;;;;;;;21.17;11.98;;;;;;;3.65;74.55;93672.19;5074298;28;20190;-85
2021/04/04 10:13:39;;;;;;;21.02;12.32;;;;;;;3.54;75.32;93682.81;5057931;28;20021;-86
2021/04/04 10:16:18;;;;;;;27.20;13.95;;;;;;;3.49;76.12;93689.94;5066004;28;20118;-85
2021/04/04 10:19:03;;;;;;;21.67;13.45;;;;;;;3.28;75.75;93676.88;5060713;28;20028;-86
2021/04/04 10:21:28;;;;;;;19.80;12.98;;;;;;;3.18;75.96;93679.56;5074456;28;20054;-85
2021/04/04 10:23:54;;;;;;;23.77;14.30;;;;;;;3.14;76.71;93683.81;5068515;28;20040;-86
2021/04/04 10:26:21;;;;;;;24.27;13.88;;;;;;;3.16;78.24;93692.22;5056052;28;20032;-85
2021/04/04 10:28:49;;;;;;;28.73;12.65;;;;;;;3.08;77.18;93684.88;5072449;28;20532;-87
2021/04/04 10:31:16;;;;;;;21.00;12.57;;;;;;;2.97;77.12;93694.63;5074059;28;20024;-86
2021/04/04 10:33:41;;;;;;;21.38;12.55;;;;;;;2.91;77.96;93679.91;5070153;28;20046;-87
2021/04/04 10:36:16;;;;;;;22.02;13.52;;;;;;;2.93;78.45;93683.88;5066283;28;20028;-86
2021/04/04 10:38:42;;;;;;;23.00;13.05;;;;;;;2.85;77.90;93679.19;5073737;28;20088;-87
2021/04/04 10:41:07;;;;;;;21.48;12.50;;;;;;;2.78;78.02;93689.19;5073473;28;20040;-87
2021/04/04 10:43:47;;;;;;;22.55;13.35;;;;;;;2.70;79.81;93685.25;5060136;28;20036;-87
2021/04/04 10:46:16;;;;;;;23.50;12.70;;;;;;;2.73;79.52;93683.94;5092293;28;20102;-88
2021/04/04 10:48:49;;;;;;;18.38;11.40;;;;;;;2.64;77.50;93677.66;5073486;28;20035;-87
2021/04/04 10:51:16;;;;;;;19.55;11.77;;;;;;;2.61;79.03;93678.97;5059689;28;20025;-87
2021/04/04 10:53:43;;;;;;;21.00;12.05;;;;;;;2.67;79.03;93679.75;5062247;28;20036;-87
2021/04/04 10:56:11;;;;;;;19.88;12.02;;;;;;;2.54;79.45;93683.72;5064088;28;20036;-87
2021/04/04 10:58:37;;;;;;;18.67;10.95;;;;;;;2.38;79.44;93686.41;5059526;28;20071;-87
2021/04/04 11:01:04;;;;;;;20.58;11.57;;;;;;;2.26;79.44;93679.81;5069278;28;20123;-87
2021/04/04 11:03:30;;;;;;;26.52;14.10;;;;;;;2.25;80.28;93686.16;5060315;28;20526;-86
2021/04/04 11:06:00;;;;;;;27.88;13.57;;;;;;;2.20;81.13;93686.94;5064675;28;20031;-87
2021/04/04 11:08:26;;;;;;;21.90;11.68;;;;;;;2.24;81.31;93690.63;5066029;28;20431;-86
2021/04/04 11:10:52;;;;;;;19.83;10.90;;;;;;;2.28;81.13;93688.22;5090366;28;20031;-86
2021/04/04 11:13:23;;;;;;;19.63;11.70;;;;;;;2.25;81.08;93686.16;5067169;28;20016;-87
2021/04/04 11:15:58;;;;;;;20.45;12.60;;;;;;;2.28;80.73;93688.22;5060638;28;20091;-86
2021/04/04 11:18:29;;;;;;;19.10;11.63;;;;;;;2.26;80.81;93690.34;5063060;28;20035;-86
2021/04/04 11:20:59;;;;;;;20.58;11.27;;;;;;;2.25;80.36;93686.94;5064296;28;20040;-87
2021/04/04 11:23:25;;;;;;;16.90;9.05;;;;;;;2.27;79.96;93682.19;5061553;28;20032;-87
2021/04/04 11:25:51;;;;;;;18.25;10.70;;;;;;;2.30;80.02;93686.94;5072955;28;20132;-87
2021/04/04 11:28:20;;;;;;;14.60;10.38;;;;;;;2.34;79.86;93681.91;5058399;28;20135;-87
2021/04/04 11:30:49;;;;;;;18.05;10.02;;;;;;;2.41;80.85;93677.19;5061311;28;20032;-87
2021/04/04 11:33:17;;;;;;;20.33;10.48;;;;;;;2.41;79.69;93672.69;5068388;28;20138;-88
2021/04/04 11:36:03;;;;;;;15.38;9.23;;;;;;;2.52;79.24;93673.47;5065628;28;20411;-87
2021/04/04 11:38:31;;;;;;;14.75;9.13;;;;;;;2.66;79.92;93665.00;5067454;28;20020;-88
2021/04/04 11:41:18;;;;;;;12.90;7.55;;;;;;;2.56;77.78;93656.06;5069616;28;20465;-88
2021/04/04 11:43:49;;;;;;;13.02;7.90;;;;;;;2.51;78.31;93644.81;5055644;28;20446;-87
2021/04/04 11:46:43;;;;;;;16.45;9.30;;;;;;;2.58;77.97;93651.34;5072257;28;20032;-87
2021/04/04 11:49:33;;;;;;;14.75;9.63;;;;;;;2.66;78.43;93643.97;5070947;28;20024;-88